createdAt,value
2023-05-17T00:00:52.551Z,5.99
2023-05-17T00:03:18.783Z,6.00
2023-05-17T00:05:44.963Z,5.90
2023-05-17T00:08:11.152Z,5.84
2023-05-17T00:10:37.300Z,5.77
2023-05-17T00:13:03.463Z,5.84
2023-05-17T00:15:29.760Z,6.02
2023-05-17T00:17:56.101Z,6.03
2023-05-17T00:20:22.391Z,5.89
2023-05-17T00:22:48.545Z,5.80
2023-05-17T00:25:14.697Z,5.53
2023-05-17T00:27:40.858Z,5.18
2023-05-17T00:30:06.994Z,5.53
2023-05-17T00:32:33.149Z,5.63
2023-05-17T00:34:59.376Z,5.34
2023-05-17T00:37:25.550Z,5.30
2023-05-17T00:39:51.713Z,5.53
2023-05-17T00:42:17.873Z,5.32
2023-05-17T00:44:44.028Z,5.35
2023-05-17T00:47:10.316Z,5.57
2023-05-17T00:49:36.489Z,5.51
2023-05-17T00:52:02.641Z,5.37
2023-05-17T00:54:28.795Z,5.57
2023-05-17T00:56:54.929Z,5.30
2023-05-17T00:59:21.103Z,5.08
2023-05-17T01:01:47.258Z,5.05
2023-05-17T01:04:13.554Z,4.99
2023-05-17T01:06:39.949Z,5.27
2023-05-17T01:09:06.121Z,5.39
2023-05-17T01:11:32.288Z,5.46
2023-05-17T01:13:58.430Z,5.48
2023-05-17T01:16:24.598Z,5.26
2023-05-17T01:18:50.832Z,5.26
2023-05-17T01:21:17.059Z,5.16
2023-05-17T01:23:43.258Z,5.18
2023-05-17T01:26:09.508Z,5.42
2023-05-17T01:28:35.656Z,5.49
2023-05-17T01:31:01.859Z,5.59
2023-05-17T01:33:28.211Z,5.46
2023-05-17T01:35:54.523Z,5.15
2023-05-17T01:38:20.665Z,5.00
2023-05-17T01:40:46.818Z,4.86
2023-05-17T01:43:12.979Z,5.14
2023-05-17T01:45:39.124Z,5.25
2023-05-17T01:48:05.317Z,5.26
2023-05-17T01:50:31.551Z,5.15
2023-05-17T01:52:57.717Z,5.08
2023-05-17T01:55:23.892Z,5.20
2023-05-17T01:57:50.046Z,5.14
2023-05-17T02:00:16.245Z,4.80
2023-05-17T02:02:42.445Z,4.93
2023-05-17T02:05:08.784Z,4.93
2023-05-17T02:07:35.080Z,4.70
2023-05-17T02:10:01.253Z,4.76
2023-05-17T02:12:27.402Z,5.37
2023-05-17T02:14:53.556Z,4.93
2023-05-17T02:17:19.700Z,4.72
2023-05-17T02:19:45.862Z,4.65
2023-05-17T02:22:12.153Z,4.51
2023-05-17T02:24:38.332Z,4.27
2023-05-17T02:27:04.504Z,4.00
2023-05-17T02:29:30.668Z,3.96
2023-05-17T02:31:56.793Z,3.98
2023-05-17T02:34:22.933Z,3.76
2023-05-17T02:36:49.054Z,3.88
2023-05-17T02:39:15.289Z,4.04
2023-05-17T02:41:41.442Z,4.33
2023-05-17T02:44:07.593Z,4.48
2023-05-17T02:46:34.275Z,4.30
2023-05-17T02:49:02.484Z,3.98
2023-05-17T02:51:28.640Z,3.67
2023-05-17T02:53:54.915Z,3.93
2023-05-17T02:56:21.050Z,4.29
2023-05-17T02:58:47.182Z,4.59
2023-05-17T03:01:13.348Z,4.62
2023-05-17T03:03:39.712Z,4.51
2023-05-17T03:06:06.073Z,4.38
2023-05-17T03:08:32.277Z,4.35
2023-05-17T03:10:58.450Z,4.25
2023-05-17T03:13:24.576Z,4.47
2023-05-17T03:15:50.742Z,4.59
2023-05-17T03:18:16.983Z,4.13
2023-05-17T03:20:43.182Z,4.27
2023-05-17T03:23:09.396Z,4.26
2023-05-17T03:25:35.529Z,4.00
2023-05-17T03:28:01.682Z,4.05
2023-05-17T03:30:27.839Z,3.59
2023-05-17T03:32:54.068Z,3.13
2023-05-17T03:35:20.266Z,3.43
2023-05-17T03:37:46.448Z,3.66
2023-05-17T03:40:12.678Z,3.55
2023-05-17T03:42:38.822Z,3.45
2023-05-17T03:45:04.987Z,3.60
2023-05-17T03:47:31.177Z,3.71
2023-05-17T03:49:57.352Z,3.97
2023-05-17T03:52:23.522Z,4.00
2023-05-17T03:54:49.650Z,4.30
2023-05-17T03:57:15.800Z,4.51
2023-05-17T03:59:41.985Z,4.69
2023-05-17T04:02:08.144Z,4.77
2023-05-17T04:04:34.335Z,4.49
2023-05-17T04:07:00.475Z,4.51
2023-05-17T04:09:26.617Z,4.32
2023-05-17T04:11:52.903Z,4.37
2023-05-17T04:14:19.062Z,4.34
2023-05-17T04:16:45.203Z,4.44
2023-05-17T04:19:11.437Z,4.70
2023-05-17T04:21:37.689Z,4.53
2023-05-17T04:24:03.836Z,4.91
2023-05-17T04:26:29.983Z,4.67
2023-05-17T04:28:56.120Z,4.62
2023-05-17T04:31:22.275Z,4.44
2023-05-17T04:33:48.423Z,3.85
2023-05-17T04:36:14.610Z,3.96
2023-05-17T04:38:40.783Z,3.51
2023-05-17T04:41:06.950Z,3.16
2023-05-17T04:43:33.125Z,3.59
2023-05-17T04:45:59.260Z,3.53
2023-05-17T04:48:25.534Z,3.56
2023-05-17T04:50:51.745Z,3.79
2023-05-17T04:53:17.895Z,3.86
2023-05-17T04:55:44.047Z,3.80
2023-05-17T04:58:10.210Z,3.56
2023-05-17T05:00:36.355Z,3.22
2023-05-17T05:03:02.500Z,3.34
2023-05-17T05:05:28.979Z,3.38
2023-05-17T05:07:55.318Z,3.66
2023-05-17T05:10:21.457Z,3.99
2023-05-17T05:12:47.600Z,4.07
2023-05-17T05:15:13.773Z,4.07
2023-05-17T05:17:40.104Z,3.39
2023-05-17T05:20:06.351Z,3.47
2023-05-17T05:22:32.488Z,4.04
2023-05-17T05:24:58.629Z,4.07
2023-05-17T05:27:24.806Z,3.21
2023-05-17T05:29:51.056Z,3.34
2023-05-17T05:32:17.265Z,3.92
2023-05-17T05:34:43.412Z,4.21
2023-05-17T05:37:09.547Z,4.32
2023-05-17T05:39:35.711Z,4.56
2023-05-17T05:42:01.850Z,4.74
2023-05-17T05:44:27.987Z,4.45
2023-05-17T05:46:54.178Z,4.91
2023-05-17T05:49:20.352Z,5.17
2023-05-17T05:51:46.511Z,5.41
2023-05-17T05:54:12.671Z,4.99
2023-05-17T05:56:38.874Z,5.09
2023-05-17T05:59:05.116Z,4.92
2023-05-17T06:01:31.280Z,4.99
2023-05-17T06:03:57.419Z,5.27
2023-05-17T06:06:25.942Z,5.60
2023-05-17T06:08:52.165Z,5.72
2023-05-17T06:11:18.392Z,5.11
2023-05-17T06:13:44.535Z,5.26
2023-05-17T06:16:10.700Z,4.98
2023-05-17T06:18:36.945Z,5.64
2023-05-17T06:21:03.106Z,4.95
2023-05-17T06:23:29.278Z,5.43
2023-05-17T06:25:55.478Z,5.81
2023-05-17T06:28:21.795Z,6.13
2023-05-17T06:30:47.947Z,6.41
2023-05-17T06:33:14.197Z,5.74
2023-05-17T06:35:54.732Z,6.21
2023-05-17T06:38:21.372Z,6.47
2023-05-17T06:40:47.546Z,6.67
2023-05-17T06:43:13.711Z,6.65
2023-05-17T06:45:39.991Z,7.11
2023-05-17T06:48:06.327Z,7.44
2023-05-17T06:50:32.833Z,7.70
2023-05-17T06:52:59.233Z,7.38
2023-05-17T06:55:25.417Z,6.94
2023-05-17T06:57:51.561Z,6.88
2023-05-17T07:00:17.690Z,6.94
2023-05-17T07:02:43.907Z,6.64
2023-05-17T07:05:10.219Z,6.57
2023-05-17T07:07:36.405Z,6.42
2023-05-17T07:10:02.641Z,6.58
2023-05-17T07:12:28.791Z,6.26
2023-05-17T07:14:55.052Z,5.67
2023-05-17T07:17:21.202Z,5.26
2023-05-17T07:19:47.533Z,5.42
2023-05-17T07:22:13.785Z,6.13
2023-05-17T07:24:39.917Z,5.25
2023-05-17T07:27:06.062Z,5.16
2023-05-17T07:29:32.328Z,5.52
2023-05-17T07:31:58.472Z,5.21
2023-05-17T07:34:24.685Z,5.59
2023-05-17T07:36:50.864Z,5.82
2023-05-17T07:39:17.068Z,5.98
2023-05-17T07:41:43.241Z,6.29
2023-05-17T07:44:09.376Z,6.46
2023-05-17T07:46:35.547Z,7.23
2023-05-17T07:49:01.787Z,7.01
2023-05-17T07:51:28.095Z,7.02
2023-05-17T07:53:54.248Z,7.88
2023-05-17T07:56:20.441Z,8.24
2023-05-17T07:58:46.645Z,7.94
2023-05-17T08:01:12.797Z,7.64
2023-05-17T08:03:38.934Z,7.47
2023-05-17T08:06:05.216Z,7.85
2023-05-17T08:08:31.388Z,7.22
2023-05-17T08:10:57.539Z,6.91
2023-05-17T08:13:23.729Z,6.88
2023-05-17T08:15:50.196Z,6.79
2023-05-17T08:18:18.060Z,6.17
2023-05-17T08:20:44.256Z,6.76
2023-05-17T08:23:10.395Z,6.74
2023-05-17T08:25:36.625Z,7.20
2023-05-17T08:28:02.811Z,6.63
2023-05-17T08:30:29.529Z,7.19
2023-05-17T08:32:55.911Z,7.19
2023-05-17T08:35:22.199Z,7.28
2023-05-17T08:37:48.353Z,7.49
2023-05-17T08:40:14.552Z,7.12
2023-05-17T08:42:40.716Z,7.23
2023-05-17T08:45:06.858Z,7.35
2023-05-17T08:47:33.041Z,8.31
2023-05-17T08:49:59.190Z,7.55
2023-05-17T08:52:25.374Z,7.30
2023-05-17T08:54:51.526Z,7.20
2023-05-17T08:57:17.690Z,7.67
2023-05-17T08:59:43.838Z,7.51
2023-05-17T09:02:10.082Z,7.39
2023-05-17T09:04:36.302Z,7.71
2023-05-17T09:07:02.480Z,7.15
2023-05-17T09:09:28.636Z,7.36
2023-05-17T09:11:54.846Z,6.91
2023-05-17T09:14:21.025Z,7.38
2023-05-17T09:16:47.219Z,7.54
2023-05-17T09:19:13.553Z,7.78
2023-05-17T09:21:39.808Z,8.40
2023-05-17T09:24:08.304Z,7.72
2023-05-17T09:26:34.805Z,7.72
2023-05-17T09:29:00.964Z,7.56
2023-05-17T09:31:27.146Z,8.02
2023-05-17T09:33:53.328Z,7.41
2023-05-17T09:36:19.475Z,7.81
2023-05-17T09:38:45.656Z,7.84
2023-05-17T09:41:11.795Z,7.78
2023-05-17T09:43:37.936Z,7.84
2023-05-17T09:46:04.083Z,7.85
2023-05-17T09:48:30.289Z,7.59
2023-05-17T09:50:56.485Z,8.01
2023-05-17T09:53:22.635Z,7.86
2023-05-17T09:55:48.795Z,7.97
2023-05-17T09:58:14.966Z,8.01
2023-05-17T10:00:41.106Z,7.63
2023-05-17T10:03:07.339Z,8.22
2023-05-17T10:05:33.722Z,8.52
2023-05-17T10:08:00.004Z,8.90
2023-05-17T10:10:26.177Z,9.43
2023-05-17T10:12:52.430Z,9.25
2023-05-17T10:15:18.600Z,8.89
2023-05-17T10:17:45.656Z,8.96
2023-05-17T10:20:12.122Z,9.26
2023-05-17T10:22:38.362Z,8.78
2023-05-17T10:25:04.527Z,9.12
2023-05-17T10:27:30.686Z,9.64
2023-05-17T10:29:56.828Z,9.46
2023-05-17T10:32:23.369Z,9.33
2023-05-17T10:35:01.536Z,9.55
2023-05-17T10:37:35.942Z,9.29
2023-05-17T10:40:02.093Z,9.03
2023-05-17T10:42:28.288Z,9.07
2023-05-17T10:44:54.516Z,9.66
2023-05-17T10:47:20.650Z,9.76
2023-05-17T10:49:46.836Z,9.25
2023-05-17T10:52:12.983Z,8.90
2023-05-17T10:54:39.137Z,9.09
2023-05-17T10:57:06.569Z,9.09
2023-05-17T10:59:34.689Z,9.42
2023-05-17T11:02:00.845Z,9.22
2023-05-17T11:04:27.046Z,9.40
2023-05-17T11:06:53.298Z,9.75
2023-05-17T11:09:19.510Z,9.75
2023-05-17T11:11:45.664Z,10.40
2023-05-17T11:14:11.811Z,9.71
2023-05-17T11:16:38.004Z,10.19
2023-05-17T11:19:04.332Z,10.00
2023-05-17T11:21:30.636Z,10.13
2023-05-17T11:23:56.803Z,9.60
2023-05-17T11:26:22.965Z,9.34
2023-05-17T11:28:49.183Z,9.44
2023-05-17T11:31:15.322Z,9.92
2023-05-17T11:33:41.544Z,10.01
2023-05-17T11:36:07.760Z,9.78
2023-05-17T11:38:33.910Z,9.96
2023-05-17T11:41:00.053Z,9.41
2023-05-17T11:43:26.225Z,9.04
2023-05-17T11:45:53.627Z,9.72
2023-05-17T11:48:20.093Z,9.64
2023-05-17T11:50:46.290Z,9.66
2023-05-17T11:53:12.426Z,9.94
2023-05-17T11:55:38.575Z,9.96
2023-05-17T11:58:04.748Z,9.31
2023-05-17T12:00:31.048Z,9.54
2023-05-17T12:02:57.345Z,9.56
2023-05-17T12:05:23.519Z,9.59
2023-05-17T12:07:49.664Z,9.89
2023-05-17T12:10:15.814Z,9.73
2023-05-17T12:12:41.952Z,9.72
2023-05-17T12:15:08.100Z,9.84
2023-05-17T12:17:34.322Z,9.96
2023-05-17T12:20:00.624Z,10.49
2023-05-17T12:22:26.824Z,11.04
2023-05-17T12:24:53.052Z,11.29
2023-05-17T12:27:19.457Z,11.40
2023-05-17T12:29:45.591Z,11.03
2023-05-17T12:32:11.741Z,10.75
2023-05-17T12:34:37.940Z,10.32
2023-05-17T12:37:04.127Z,10.75
2023-05-17T12:39:30.269Z,10.37
2023-05-17T12:41:56.396Z,10.93
2023-05-17T12:44:22.544Z,10.22
2023-05-17T12:46:48.734Z,10.47
2023-05-17T12:49:14.961Z,10.26
2023-05-17T12:51:41.197Z,10.33
2023-05-17T12:54:07.354Z,11.24
2023-05-17T12:56:33.573Z,10.62
2023-05-17T12:58:59.751Z,10.58
2023-05-17T13:01:25.945Z,11.23
2023-05-17T13:03:52.150Z,10.35
2023-05-17T13:06:18.361Z,10.27
2023-05-17T13:08:44.537Z,10.35
2023-05-17T13:11:10.684Z,10.52
2023-05-17T13:13:36.816Z,10.81
2023-05-17T13:16:02.958Z,10.64
2023-05-17T13:18:29.216Z,10.69
2023-05-17T13:20:55.415Z,10.52
2023-05-17T13:23:21.709Z,10.52
2023-05-17T13:25:47.877Z,10.49
2023-05-17T13:28:14.017Z,10.95
2023-05-17T13:30:40.303Z,10.60
2023-05-17T13:33:06.562Z,10.58
2023-05-17T13:35:32.829Z,11.02
2023-05-17T13:37:58.970Z,10.86
2023-05-17T13:40:25.116Z,10.32
2023-05-17T13:42:51.268Z,10.51
2023-05-17T13:45:17.413Z,10.19
2023-05-17T13:47:43.788Z,10.18
2023-05-17T13:50:10.012Z,10.16
2023-05-17T13:52:36.193Z,10.73
2023-05-17T13:55:02.326Z,11.16
2023-05-17T13:57:28.495Z,11.30
2023-05-17T13:59:54.651Z,10.77
2023-05-17T14:02:20.974Z,10.79
2023-05-17T14:04:47.154Z,10.82
2023-05-17T14:07:13.311Z,10.78
2023-05-17T14:09:39.477Z,11.00
2023-05-17T14:12:05.641Z,11.20
2023-05-17T14:14:31.892Z,11.16
2023-05-17T14:16:58.108Z,11.76
2023-05-17T14:19:24.437Z,11.49
2023-05-17T14:21:50.622Z,11.53
2023-05-17T14:24:16.757Z,11.28
2023-05-17T14:26:43.003Z,11.72
2023-05-17T14:29:09.159Z,11.43
2023-05-17T14:31:35.314Z,11.62
2023-05-17T14:34:01.524Z,11.76
2023-05-17T14:36:27.721Z,11.58
2023-05-17T14:38:53.868Z,11.40
2023-05-17T14:41:19.990Z,11.10
2023-05-17T14:43:46.118Z,10.94
2023-05-17T14:46:12.403Z,10.95
2023-05-17T14:48:38.583Z,10.78
2023-05-17T14:51:04.754Z,10.67
2023-05-17T14:53:31.014Z,11.09
2023-05-17T14:55:57.188Z,10.67
2023-05-17T14:58:23.377Z,10.74
2023-05-17T15:00:52.227Z,10.58
2023-05-17T15:03:22.183Z,10.40
2023-05-17T15:05:48.692Z,10.04
2023-05-17T15:08:14.941Z,9.87
2023-05-17T15:10:41.099Z,9.77
2023-05-17T15:13:07.281Z,9.71
2023-05-17T15:15:33.423Z,9.42
2023-05-17T15:17:59.665Z,9.46
2023-05-17T15:20:25.905Z,9.51
2023-05-17T15:22:52.090Z,9.32
2023-05-17T15:25:18.260Z,9.97
2023-05-17T15:27:44.406Z,10.15
2023-05-17T15:30:13.228Z,9.88
2023-05-17T15:32:39.653Z,10.02
2023-05-17T15:35:05.849Z,9.88
2023-05-17T15:37:32.012Z,9.81
2023-05-17T15:39:58.162Z,10.04
2023-05-17T15:42:24.319Z,10.00
2023-05-17T15:44:50.452Z,9.92
2023-05-17T15:47:16.613Z,9.95
2023-05-17T15:49:42.804Z,10.05
2023-05-17T15:52:08.993Z,9.78
2023-05-17T15:54:35.145Z,9.78
2023-05-17T15:57:01.299Z,10.19
2023-05-17T15:59:27.437Z,10.17
2023-05-17T16:01:53.597Z,9.66
2023-05-17T16:04:19.774Z,9.36
2023-05-17T16:06:46.119Z,9.57
2023-05-17T16:09:12.406Z,9.40
2023-05-17T16:11:38.566Z,9.47
2023-05-17T16:14:04.703Z,9.25
2023-05-17T16:16:30.888Z,8.82
2023-05-17T16:18:57.088Z,9.10
2023-05-17T16:21:23.301Z,8.95
2023-05-17T16:23:49.442Z,9.19
2023-05-17T16:26:15.592Z,9.16
2023-05-17T16:28:41.759Z,9.16
2023-05-17T16:31:08.061Z,9.21
2023-05-17T16:33:34.316Z,8.73
2023-05-17T16:36:00.528Z,9.02
2023-05-17T16:38:26.719Z,8.66
2023-05-17T16:40:52.860Z,8.68
2023-05-17T16:43:18.983Z,8.82
2023-05-17T16:45:45.176Z,8.77
2023-05-17T16:48:11.357Z,8.73
2023-05-17T16:50:37.537Z,8.63
2023-05-17T16:53:03.675Z,8.10
2023-05-17T16:55:29.997Z,8.37
2023-05-17T16:57:56.154Z,8.26
2023-05-17T17:00:22.319Z,8.07
2023-05-17T17:02:48.529Z,7.98
2023-05-17T17:05:14.745Z,7.89
2023-05-17T17:07:40.891Z,7.71
2023-05-17T17:10:07.097Z,7.72
2023-05-17T17:12:33.390Z,7.53
2023-05-17T17:14:59.555Z,7.87
2023-05-17T17:17:26.075Z,7.99
2023-05-17T17:19:52.285Z,8.21
2023-05-17T17:22:18.484Z,7.75
2023-05-17T17:24:44.614Z,7.65
2023-05-17T17:27:10.906Z,7.61
2023-05-17T17:29:37.082Z,7.23
2023-05-17T17:32:03.275Z,7.40
2023-05-17T17:34:29.417Z,7.09
2023-05-17T17:36:55.576Z,7.57
2023-05-17T17:39:21.722Z,7.47
2023-05-17T17:41:47.860Z,7.50
2023-05-17T17:44:14.035Z,7.23
2023-05-17T17:46:40.203Z,7.48
2023-05-17T17:49:06.383Z,7.06
2023-05-17T17:51:32.535Z,7.06
2023-05-17T17:53:58.692Z,7.36
2023-05-17T17:56:24.830Z,7.09
2023-05-17T17:58:50.996Z,6.99
2023-05-17T18:01:17.221Z,7.31
2023-05-17T18:03:43.379Z,7.10
2023-05-17T18:06:09.509Z,7.30
2023-05-17T18:08:35.675Z,7.14
2023-05-17T18:11:01.805Z,7.38
2023-05-17T18:13:27.960Z,7.50
2023-05-17T18:15:54.132Z,7.23
2023-05-17T18:18:20.294Z,6.88
2023-05-17T18:20:46.434Z,6.79
2023-05-17T18:23:12.604Z,7.05
2023-05-17T18:25:38.764Z,6.87
2023-05-17T18:28:06.355Z,7.17
2023-05-17T18:30:34.211Z,6.82
2023-05-17T18:33:00.405Z,6.94
2023-05-17T18:35:26.580Z,6.79
2023-05-17T18:37:52.718Z,7.11
2023-05-17T18:40:18.865Z,7.15
2023-05-17T18:42:45.017Z,7.25
2023-05-17T18:45:11.291Z,7.16
2023-05-17T18:47:37.483Z,6.45
2023-05-17T18:50:03.669Z,5.87
2023-05-17T18:52:29.827Z,6.14
2023-05-17T18:54:55.969Z,6.41
2023-05-17T18:57:22.104Z,6.36
2023-05-17T18:59:48.252Z,6.52
2023-05-17T19:02:14.397Z,6.56
2023-05-17T19:04:40.669Z,6.65
2023-05-17T19:07:06.870Z,6.86
2023-05-17T19:09:33.050Z,6.98
2023-05-17T19:11:59.194Z,7.19
2023-05-17T19:14:25.330Z,7.11
2023-05-17T19:16:51.545Z,7.30
2023-05-17T19:19:17.794Z,7.36
2023-05-17T19:21:43.979Z,7.49
2023-05-17T19:24:10.130Z,7.26
2023-05-17T19:26:36.283Z,6.55
2023-05-17T19:29:02.439Z,6.71
2023-05-17T19:31:28.643Z,6.60
2023-05-17T19:33:54.824Z,6.48
2023-05-17T19:36:20.969Z,6.49
2023-05-17T19:38:47.129Z,6.13
2023-05-17T19:41:13.297Z,6.17
2023-05-17T19:43:39.443Z,6.64
2023-05-17T19:46:05.585Z,6.78
2023-05-17T19:48:31.737Z,6.87
2023-05-17T19:50:57.903Z,6.88
2023-05-17T19:53:24.039Z,7.23
2023-05-17T19:55:50.224Z,6.92
2023-05-17T19:58:16.432Z,6.30
2023-05-17T20:00:42.579Z,5.92
2023-05-17T20:03:08.844Z,6.19
2023-05-17T20:05:35.081Z,6.36
2023-05-17T20:08:01.235Z,6.54
2023-05-17T20:10:27.469Z,6.47
2023-05-17T20:12:53.704Z,6.55
2023-05-17T20:15:19.852Z,6.50
2023-05-17T20:17:46.174Z,6.12
2023-05-17T20:20:12.357Z,6.21
2023-05-17T20:22:38.550Z,6.17
2023-05-17T20:25:04.701Z,6.10
2023-05-17T20:27:30.862Z,6.08
2023-05-17T20:29:57.014Z,6.26
2023-05-17T20:32:23.156Z,6.22
2023-05-17T20:34:49.302Z,6.12
2023-05-17T20:37:15.451Z,6.37
2023-05-17T20:39:41.608Z,6.18
2023-05-17T20:42:07.848Z,6.16
2023-05-17T20:44:34.008Z,6.24
2023-05-17T20:47:00.198Z,6.63
2023-05-17T20:49:26.381Z,6.81
2023-05-17T20:51:52.678Z,6.85
2023-05-17T20:54:18.826Z,6.66
2023-05-17T20:56:44.978Z,6.91
2023-05-17T20:59:11.117Z,6.92
2023-05-17T21:01:37.383Z,7.13
2023-05-17T21:04:03.712Z,7.11
2023-05-17T21:06:32.533Z,7.16
2023-05-17T21:08:59.052Z,7.29
2023-05-17T21:11:25.198Z,7.33
2023-05-17T21:13:51.367Z,7.22
2023-05-17T21:16:17.570Z,7.21
2023-05-17T21:18:43.819Z,7.30
2023-05-17T21:21:10.016Z,7.24
2023-05-17T21:23:36.179Z,7.49
2023-05-17T21:26:02.326Z,7.05
2023-05-17T21:28:28.482Z,6.95
2023-05-17T21:30:54.615Z,7.23
2023-05-17T21:33:20.743Z,7.22
2023-05-17T21:35:46.918Z,7.36
2023-05-17T21:38:13.182Z,7.39
2023-05-17T21:40:39.338Z,7.31
2023-05-17T21:43:05.518Z,7.39
2023-05-17T21:45:31.771Z,7.42
2023-05-17T21:47:58.070Z,7.53
2023-05-17T21:50:24.318Z,7.37
2023-05-17T21:52:50.530Z,7.42
2023-05-17T21:55:16.692Z,7.41
2023-05-17T21:57:42.838Z,7.35
2023-05-17T22:00:09.083Z,7.18
2023-05-17T22:02:35.460Z,7.29
2023-05-17T22:05:01.696Z,7.08
2023-05-17T22:07:27.860Z,7.06
2023-05-17T22:09:54.030Z,7.02
2023-05-17T22:12:20.180Z,7.31
2023-05-17T22:14:46.339Z,7.25
2023-05-17T22:17:12.500Z,7.37
2023-05-17T22:19:38.672Z,7.29
2023-05-17T22:22:04.828Z,7.24
2023-05-17T22:24:30.985Z,7.15
2023-05-17T22:26:57.138Z,7.10
2023-05-17T22:29:23.286Z,7.09
2023-05-17T22:31:49.484Z,7.34
2023-05-17T22:34:15.728Z,7.31
2023-05-17T22:36:41.892Z,6.74
2023-05-17T22:39:11.105Z,6.71
2023-05-17T22:41:37.249Z,6.73
2023-05-17T22:44:03.415Z,7.04
2023-05-17T22:46:29.577Z,7.21
2023-05-17T22:48:55.750Z,7.31
2023-05-17T22:51:21.896Z,6.99
2023-05-17T22:53:48.078Z,7.22
2023-05-17T22:56:14.234Z,7.06
2023-05-17T22:58:40.492Z,6.92
2023-05-17T23:01:06.663Z,7.00
2023-05-17T23:03:32.851Z,6.98
2023-05-17T23:05:59.052Z,6.98
2023-05-17T23:08:25.183Z,6.79
2023-05-17T23:10:51.348Z,6.74
2023-05-17T23:13:17.477Z,6.46
2023-05-17T23:15:43.605Z,6.26
2023-05-17T23:18:09.766Z,6.44
2023-05-17T23:20:35.904Z,6.68
2023-05-17T23:23:02.038Z,6.63
2023-05-17T23:25:28.377Z,6.70
2023-05-17T23:27:54.717Z,6.80
2023-05-17T23:30:20.896Z,6.78
2023-05-17T23:32:47.272Z,6.73
2023-05-17T23:35:13.536Z,6.52
2023-05-17T23:37:39.695Z,6.49
2023-05-17T23:40:05.875Z,6.55
2023-05-17T23:42:32.029Z,6.55
2023-05-17T23:44:58.165Z,6.67
2023-05-17T23:47:24.381Z,6.54
2023-05-17T23:49:50.560Z,6.45
2023-05-17T23:52:16.707Z,6.52
2023-05-17T23:54:43.056Z,6.57
2023-05-17T23:57:09.222Z,6.69
2023-05-17T23:59:35.438Z,6.89
